Latest Coastal Weather Observations for Yamba

IDN60701

Issued at 12:51 am EST Wednesday 23 August 2017 (issued every 10 minutes, with the page automatically refreshed every 10 minutes)

About coastal observations | Map of coastal stations | Coastal observations for NSW | Marine services | Other Formats
Station Details ID: 058012 Name: YAMBA PILOT STATION Lat: -29.43 Lon: 153.36 Height: 27.4 m
Data from the previous 72 hours. | See also: Recent months at Yamba
Date/Time
EST
Temp
°C
Wind Pressure Rain since
9am
mm
Weather Cloud Vis
km
Sea
Height
m
Swell
Dir  Spd
kts
Gust
kts
hPa Trend Height
m
Period
s
Dir
23/12:30am 14.5 SW 7 9 1019.9 - 0.0 - - - - - - -
23/12:00am 14.7 SW 6 9 1020.1 - 0.0 - - - - - - -
 
Date/Time
EST
Temp
°C
Wind Pressure Rain since
9am
mm
Weather Cloud Vis
km
Sea
Height
m
Swell
Dir  Spd
kts
Gust
kts
hPa Trend Height
m
Period
s
Dir
22/11:30pm 14.9 WSW 6 7 1020.4 - 0.0 - - - - - - -
22/11:00pm 15.6 SW 5 8 1020.2 - 0.0 - - - - - - -
22/10:30pm 16.0 WSW 4 7 1020.3 - 0.0 - - - - - - -
22/10:00pm 16.4 SSW 7 8 1020.1 - 0.0 - - - - - - -
22/09:30pm 18.3 SSE 7 11 1020.1 - 0.0 - - - - - - -
22/09:00pm 18.6 SSE 8 12 1019.9 - 0.0 - - - - - - -
22/08:30pm 18.7 SSE 9 13 1019.8 - 0.0 - - - - - - -
22/08:00pm 18.7 SE 11 15 1019.7 - 0.0 - - - - - - -
22/07:30pm 18.7 SE 11 15 1019.4 - 0.0 - - - - - - -
22/07:00pm 18.5 SE 12 17 1019.0 - 0.0 - - - - - - -
22/06:30pm 18.6 SE 13 17 1018.5 - 0.0 - - - - - - -
22/06:00pm 18.7 SE 14 18 1017.8 - 0.0 - - - - - - -
22/05:30pm 19.1 SE 13 17 1017.6 - 0.0 - - - - - - -
22/05:00pm 19.3 SE 12 16 1017.1 - 0.0 - - - - - - -
22/04:30pm 19.8 ESE 9 12 1016.6 - 0.0 - - - - - - -
22/04:00pm 19.9 E 7 9 1016.2 - 0.0 - - - - - - -
22/03:30pm 20.0 ESE 11 14 1016.1 - 0.0 - - - - - - -
22/03:00pm 20.3 ESE 7 12 1015.9 - 0.0 - - - - - - -
22/02:30pm 21.1 E 6 8 1015.5 - 0.0 - - - - - - -
22/02:00pm 22.2 E 5 7 1015.5 - 0.0 - - - - - - -
22/01:30pm 23.8 NNE 4 6 1015.6 - 0.0 - - - - - - -
22/01:00pm 24.2 NW 5 10 1015.7 - 0.0 - - - - - - -
22/12:30pm 24.4 NW 6 11 1015.9 - 0.0 - - - - - - -
22/12:00pm 23.2 NW 8 11 1016.4 - 0.0 - - - - - - -
22/11:30am 22.8 NW 9 12 1017.1 - 0.0 - - - - - - -
22/11:00am 22.1 NW 12 19 1017.4 - 0.0 - - - - - - -
22/10:30am 21.6 NW 7 11 1018.1 - 0.0 - - - - - - -
22/10:00am 20.9 NW 7 13 1018.4 - 0.0 - - - - - - -
22/09:30am 20.6 NW 9 13 1018.3 - 0.0 - - - - - - -
22/09:00am 18.0 NW 6 8 1018.5 - 0.0 - - - - - - -
22/08:30am 15.9 WNW 6 9 1018.8 - 0.0 - - - - - - -
22/08:00am 13.5 W 7 10 1018.8 - 0.0 - - - - - - -
22/07:30am 13.2 W 7 9 1018.6 - 0.0 - - - - - - -
22/07:00am 13.2 W 8 10 1018.3 - 0.0 - - - - - - -
22/06:30am 13.2 W 7 9 1018.1 - 0.0 - - - - - - -
22/06:00am 13.5 W 7 9 1017.8 - 0.0 - - - - - - -
22/05:30am 14.0 WNW 5 6 1017.7 - 0.0 - - - - - - -
22/05:00am 14.3 WNW 5 7 1017.5 - 0.0 - - - - - - -
22/04:30am 14.3 W 3 4 1017.5 - 0.0 - - - - - - -
22/04:00am 14.4 W 3 4 1017.6 - 0.0 - - - - - - -
22/03:30am 14.5 W 1 3 1017.3 - 0.0 - - - - - - -
22/03:00am 15.0 NW 5 6 1017.1 - 0.0 - - - - - - -
22/02:30am 15.1 NW 5 7 1017.3 - 0.0 - - - - - - -
22/02:00am 15.3 NW 7 9 1017.5 - 0.0 - - - - - - -
22/01:30am 15.6 NNW 7 10 1017.5 - 0.0 - - - - - - -
22/01:00am 15.8 NNW 7 13 1017.7 - 0.0 - - - - - - -
22/12:30am 15.7 NNW 8 12 1017.9 - 0.0 - - - - - - -
22/12:00am 15.7 NNW 6 9 1018.1 - 0.0 - - - - - - -
 
Date/Time
EST
Temp
°C
Wind Pressure Rain since
9am
mm
Weather Cloud Vis
km
Sea
Height
m
Swell
Dir  Spd
kts
Gust
kts
hPa Trend Height
m
Period
s
Dir
21/11:30pm 15.9 NNW 7 9 1018.4 - 0.0 - - - - - - -
21/11:00pm 16.0 NNW 7 11 1018.4 - 0.0 - - - - - - -
21/10:30pm 16.4 NNW 7 11 1018.6 - 0.0 - - - - - - -
21/10:00pm 17.1 NNW 8 13 1018.6 - 0.0 - - - - - - -
21/09:30pm 17.0 NNW 7 11 1018.2 - 0.0 - - - - - - -
21/09:00pm 16.9 NNW 6 12 1018.6 - 0.0 - - - - - - -
21/08:30pm 17.5 N 7 14 1018.2 - 0.0 - - - - - - -
21/08:00pm 17.6 N 5 11 1018.1 - 0.0 - - - - - - -
21/07:30pm 17.5 N 5 8 1018.7 - 0.0 - - - - - - -
21/07:00pm 17.4 NNE 5 9 1018.3 - 0.0 - - - - - - -
21/06:30pm 17.5 N 5 12 1017.9 - 0.0 - - - - - - -
21/06:00pm 17.4 N 5 9 1017.7 - 0.0 - - - - - - -
21/05:30pm 17.6 N 5 9 1017.5 - 0.0 - - - - - - -
21/05:00pm 17.9 N 5 9 1017.7 - 0.0 - - - - - - -
21/04:30pm 18.0 NNE 7 13 1017.4 - 0.0 - - - - - - -
21/04:00pm 19.1 N 5 10 1017.4 - 0.0 - - - - - - -
21/03:30pm 19.1 N 5 9 1017.4 - 0.0 - - - - - - -
21/03:00pm 19.0 NNE 5 10 1017.3 - 0.0 - - - - - - -
21/02:30pm 18.9 NE 6 9 1017.7 - 0.0 - - - - - - -
21/02:00pm 20.5 NNE 5 8 1017.9 - 0.0 - - - - - - -
21/01:30pm 18.9 ENE 5 7 1018.5 - 0.0 - - - - - - -
21/01:00pm 18.7 ENE 4 6 1019.3 - 0.0 - - - - - - -
21/12:30pm 18.1 N 4 5 1019.4 - 0.0 - - - - - - -
21/12:00pm 17.7 NW 6 8 1020.5 - 0.0 - - - - - - -
21/11:30am 19.2 W 6 8 1021.2 - 0.0 - - - - - - -
21/11:00am 17.7 WSW 6 9 1021.6 - 0.0 - - - - - - -
21/10:30am 15.6 W 6 9 1021.7 - 0.0 - - - - - - -
21/10:00am 14.5 WSW 5 9 1022.0 - 0.0 - - - - - - -
21/09:30am 14.4 WSW 6 9 1022.2 - 0.0 - - - - - - -
21/09:00am 13.7 WSW 7 12 1022.0 - 0.0 - - - - - - -
21/08:30am 12.5 WSW 6 10 1022.0 - 0.0 - - - - - - -
21/08:00am 11.6 WSW 5 8 1021.7 - 0.0 - - - - - - -
21/07:30am 10.2 WSW 5 9 1021.3 - 0.0 - - - - - - -
21/07:00am 8.8 WSW 5 8 1021.2 - 0.0 - - - - - - -
21/06:30am 8.1 WSW 6 9 1021.2 - 0.0 - - - - - - -
21/06:00am 8.2 SW 5 10 1020.9 - 0.0 - - - - - - -
21/05:30am 8.3 WSW 5 9 1020.4 - 0.0 - - - - - - -
21/05:00am 8.5 SW 5 8 1020.0 - 0.0 - - - - - - -
21/04:30am 8.9 SW 5 9 1019.9 - 0.0 - - - - - - -
21/04:00am 9.3 SW 7 11 1020.0 - 0.0 - - - - - - -
21/03:30am 8.7 WSW 5 8 1020.0 - 0.0 - - - - - - -
21/03:00am 8.8 WSW 5 8 1020.2 - 0.0 - - - - - - -
21/02:30am 9.1 WSW 5 7 1020.0 - 0.0 - - - - - - -
21/02:00am 9.4 WSW 6 8 1020.0 - 0.0 - - - - - - -
21/01:30am 9.8 W 6 7 1020.3 - 0.0 - - - - - - -
21/01:00am 9.8 WSW 5 6 1020.3 - 0.0 - - - - - - -
21/12:30am 10.5 WSW 5 6 1020.6 - 0.0 - - - - - - -
21/12:00am 10.7 WSW 3 6 1020.8 - 0.0 - - - - - - -
 
Date/Time
EST
Temp
°C
Wind Pressure Rain since
9am
mm
Weather Cloud Vis
km
Sea
Height
m
Swell
Dir  Spd
kts
Gust
kts
hPa Trend Height
m
Period
s
Dir
20/11:30pm 11.6 SSW 5 8 1020.9 - 0.0 - - - - - - -
20/11:00pm 11.7 SW 4 6 1021.3 - 0.0 - - - - - - -
20/10:30pm 12.5 SW 5 8 1021.2 - 0.0 - - - - - - -
20/10:00pm 13.0 SW 5 7 1020.9 - 0.0 - - - - - - -
20/09:30pm 13.3 SSW 6 9 1020.8 - 0.0 - - - - - - -
20/09:00pm 13.5 S 10 14 1020.7 - 0.0 - - - - - - -
20/08:30pm 13.9 S 11 14 1020.6 - 0.0 - - - - - - -
20/08:00pm 14.0 SSW 9 14 1020.4 - 0.0 - - - - - - -
20/07:30pm 14.2 SSW 9 16 1020.5 - 0.0 - - - - - - -
20/07:00pm 14.3 S 11 16 1020.2 - 0.0 - - - - - - -
20/06:30pm 14.5 SSW 7 11 1020.0 - 0.0 - - - - - - -
20/06:00pm 14.8 S 11 16 1019.8 - 0.0 - - - - - - -
20/05:30pm 15.1 S 8 12 1019.6 - 0.0 - - - - - - -
20/05:00pm 16.2 S 10 15 1019.4 - 0.0 - - - - - - -
20/04:30pm 16.7 SSE 13 22 1019.0 - 0.0 - - - - - - -
20/04:00pm 17.1 SSE 13 22 1018.8 - 0.0 - - - - - - -
20/03:30pm 17.4 SSE 16 29 1018.5 - 0.0 - - - - - - -
20/03:00pm 17.3 SSE 17 31 1018.4 - 0.0 - - - - - - -
20/02:30pm 17.4 SSE 17 29 1018.2 - 0.0 - - - - - - -
20/02:21pm 17.9 SSE 17 29 1018.2 - 0.0 - - - - - - -
20/02:00pm 17.6 SSE 15 23 1018.2 - 0.0 - - - - - - -
20/01:30pm 18.0 SSE 16 24 1018.2 - 0.0 - - - - - - -
20/01:00pm 17.6 SSE 14 23 1018.7 - 0.0 - - - - - - -
20/12:45pm 17.3 SSE 17 29 1018.8 - 0.0 - - - - - - -
20/12:30pm 17.7 SSE 17 25 1019.0 - 0.0 - - - - - - -
20/12:08pm 17.2 SSE 17 27 1019.3 - 0.0 - - - - - - -
20/12:00pm 17.2 SSE 17 25 1019.3 - 0.0 - - - - - - -
20/11:41am 17.1 SSE 16 26 1019.7 - 0.0 - - - - - - -
20/11:30am 16.8 SSE 18 26 1019.7 - 0.0 - - - - - - -
20/11:00am 16.7 SSE 15 24 1020.2 - 0.0 - - - - - - -
20/10:58am 16.9 SSE 15 24 1020.2 - 0.0 - - - - - - -
20/10:30am 16.2 SSW 7 12 1020.6 - 0.0 - - - - - - -
20/10:00am 15.1 SSW 7 12 1020.7 - 0.0 - - - - - - -
20/09:30am 14.0 SW 8 14 1020.9 - 0.0 - - - - - - -
20/09:00am 13.3 SW 8 13 1020.9 - 0.0 - - - - - - -
20/08:30am 11.8 SW 5 11 1020.7 - 0.0 - - - - - - -
20/08:00am 10.4 SW 5 10 1020.4 - 0.0 - - - - - - -
20/07:30am 9.3 SW 6 10 1020.3 - 0.0 - - - - - - -
20/07:00am 8.0 SW 6 10 1019.8 - 0.0 - - - - - - -
20/06:30am 7.1 SW 5 7 1019.5 - 0.0 - - - - - - -
20/06:00am 7.3 WSW 5 7 1019.1 - 0.0 - - - - - - -
20/05:30am 7.3 WSW 5 9 1018.7 - 0.0 - - - - - - -
20/05:00am 7.6 WSW 5 9 1018.4 - 0.0 - - - - - - -
20/04:30am 8.3 SW 4 7 1018.3 - 0.0 - - - - - - -
20/04:00am 8.4 SW 6 9 1017.9 - 0.0 - - - - - - -
20/03:30am 8.5 SW 4 7 1017.8 - 0.0 - - - - - - -
20/03:00am 9.1 SW 6 10 1017.6 - 0.0 - - - - - - -
20/02:30am 8.7 SW 4 7 1017.7 - 0.0 - - - - - - -
20/02:00am 9.0 SW 4 6 1017.8 - 0.0 - - - - - - -
20/01:30am 9.2 SW 5 7 1018.0 - 0.0 - - - - - - -
20/01:00am 9.6 SSW 5 6 1018.1 - 0.0 - - - - - - -

Other Formats:

Comma delimited format used in spreadsheet applications
http://www.bom.gov.au/fwo/IDN60701/IDN60701.94589.axf

JavaScript Object Notation format (JSON) in row-major order
http://www.bom.gov.au/fwo/IDN60701/IDN60701.94589.json